TimePST,TemperatureF,Dew PointF,Humidity,Sea Level PressureIn,VisibilityMPH,Wind Direction,Wind SpeedMPH,Gust SpeedMPH,PrecipitationIn,Events,Conditions,WindDirDegrees,DateUTC
12:56 AM,39.2,23.0,52,30.25,10.0,Calm,Calm,-,N/A,,Clear,0,2013-02-27 08:56:00
1:56 AM,39.2,23.0,52,30.25,10.0,SSE,3.5,-,N/A,,Scattered Clouds,160,2013-02-27 09:56:00
2:56 AM,41.0,23.0,49,30.26,10.0,South,4.6,-,N/A,,Overcast,180,2013-02-27 10:56:00
3:56 AM,41.0,23.0,49,30.25,10.0,South,8.1,-,N/A,,Overcast,190,2013-02-27 11:56:00
4:56 AM,42.1,21.9,45,30.26,10.0,South,15.0,21.9,N/A,,Overcast,180,2013-02-27 12:56:00
5:56 AM,42.1,21.9,45,30.27,10.0,SSW,13.8,-,N/A,,Mostly Cloudy,200,2013-02-27 13:56:00
6:56 AM,41.0,21.9,47,30.29,10.0,SSW,13.8,-,N/A,,Overcast,200,2013-02-27 14:56:00
7:56 AM,42.1,23.0,47,30.30,10.0,South,10.4,-,N/A,,Overcast,190,2013-02-27 15:56:00
8:56 AM,45.0,24.1,44,30.32,10.0,South,9.2,18.4,N/A,,Overcast,190,2013-02-27 16:56:00
9:56 AM,48.0,24.1,39,30.31,10.0,South,17.3,-,N/A,,Clear,190,2013-02-27 17:56:00
10:56 AM,50.0,24.1,36,30.30,10.0,South,18.4,-,N/A,,Clear,170,2013-02-27 18:56:00
11:56 AM,52.0,24.1,34,30.30,10.0,SSE,16.1,24.2,N/A,,Clear,150,2013-02-27 19:56:00
12:56 PM,54.0,25.0,33,30.27,10.0,SSE,10.4,20.7,N/A,,Clear,160,2013-02-27 20:56:00
1:56 PM,54.0,25.0,33,30.26,10.0,SSE,10.4,-,N/A,,Clear,160,2013-02-27 21:56:00
2:56 PM,54.0,25.0,33,30.26,10.0,SE,9.2,-,N/A,,Clear,140,2013-02-27 22:56:00
3:56 PM,54.0,25.0,33,30.26,10.0,ESE,5.8,-,N/A,,Clear,110,2013-02-27 23:56:00
4:56 PM,54.0,23.0,30,30.25,10.0,Calm,Calm,-,N/A,,Clear,0,2013-02-28 00:56:00
5:56 PM,48.9,25.0,39,30.26,10.0,East,5.8,-,N/A,,Clear,90,2013-02-28 01:56:00
6:56 PM,46.0,25.0,44,30.27,10.0,SSE,5.8,-,N/A,,Clear,160,2013-02-28 02:56:00
7:56 PM,48.2,26.6,43,30.24,10.0,SSE,10.4,-,N/A,,Overcast,160,2013-02-28 03:56:00
8:56 PM,48.0,26.1,42,30.26,10.0,South,8.1,-,N/A,,Overcast,180,2013-02-28 04:56:00
9:56 PM,48.2,24.8,40,30.23,10.0,South,8.1,-,N/A,,Overcast,170,2013-02-28 05:56:00
10:56 PM,46.9,26.1,44,30.26,10.0,SSE,4.6,-,N/A,,Overcast,160,2013-02-28 06:56:00
11:56 PM,45.0,30.0,56,30.29,10.0,Calm,Calm,-,0.00,Rain,Light Rain,0,2013-02-28 07:56:00